Impacts TAF Board INFO
FOR SITUATIONAL AWARENESS. NOT TO BE USED FOR FLIGHT PLANNING PURPOSES.
IDs:

KJFK - New York/Kennedy Int, NY, US

Issued at 0529 UTC 19 Nov 2017
Updated at 0642 UTC 19 Nov 2017
Potential Impact None Slight Moderate High
Time0551Z 19/07Z 19/08Z 19/09Z 19/10Z 19/11Z 19/12Z 19/13Z 19/14Z 19/15Z 19/16Z 19/17Z 19/18Z 19/19Z>>
Type OBS PRVL PRVL PRVL PRVL PRVL PRVL PRVL PRVL PRVL PRVL PRVL PRVL PRVL
VIS 10 6 3 3 3 3 6 6 6 >6 >6 >6 >6 >6
CIG 180 50 15 15 15 15 20 20 20 40 40 40 40 --
Cover BKN OVC OVC OVC OVC OVC OVC OVC OVC BKN BKN BKN BKN SCT
FltCat VFR VFR MVFR MVFR MVFR MVFR MVFR MVFR MVFR VFR VFR VFR VFR VFR
WX -- -SHRA BR SHRA BR SHRA BR SHRA BR SHRA BR -SHRA BR -SHRA BR -SHRA BR -- -- -- -- --
WDir 190 190 200 200 200 200 250 250 250 280 280 280 280 280
WSpd 18 19 20 20 20 20 22 22 22 23 23 23 23 23
WGst -- 25 34 34 34 34 40 40 40 39 39 39 39 35

Raw TAF
KJFK 190529Z 1906/2012 19019G25KT 6SM -SHRA BR OVC050 WS020/22050KT
  FM190800 20020G34KT 3SM SHRA BR BKN015 OVC035 WS020/22050KT
  FM191200 25022G40KT 6SM -SHRA BR BKN020 OVC040
  FM191500 28023G39KT P6SM BKN040
  FM191900 28023G35KT P6SM SCT050
  FM192300 29018G28KT P6SM SCT050
  FM200600 29016G25KT P6SM FEW050


Raw METAR
KJFK 190551Z 19018KT 10SM FEW080 SCT120 SCT150 BKN180 13/12 A2939 RMK AO2 SLP953 60015 T01280117 10139 20100 56042
KJFK 190451Z 19020KT 10SM FEW080 FEW110 OVC170 13/12 A2943 RMK AO2 PK WND 18027/0415 SLP965 P0001 T01330122 401391022
KJFK 190351Z 18020G26KT 10SM FEW080 BKN110 OVC150 13/12 A2946 RMK AO2 PK WND 18026/0343 RAE0252B30E41 SLP975 P0001 T01330122

METAR Board
Radar Display
Forecast Discussion

FOR SITUATIONAL AWARENESS. NOT TO BE USED FOR FLIGHT PLANNING PURPOSES.